createdAt,value
2018-01-16T00:01:13.895Z,17.30
2018-01-16T00:03:41.441Z,19.33
2018-01-16T00:06:08.994Z,19.42
2018-01-16T00:08:36.577Z,18.48
2018-01-16T00:11:04.402Z,19.90
2018-01-16T00:13:31.950Z,21.25
2018-01-16T00:15:59.490Z,20.52
2018-01-16T00:18:27.146Z,18.98
2018-01-16T00:20:54.738Z,19.20
2018-01-16T00:23:22.366Z,18.90
2018-01-16T00:25:50.111Z,19.08
2018-01-16T00:28:17.662Z,17.98
2018-01-16T00:30:45.213Z,19.83
2018-01-16T00:33:12.793Z,19.52
2018-01-16T00:35:40.422Z,19.58
2018-01-16T00:38:08.001Z,17.27
2018-01-16T00:40:35.552Z,17.90
2018-01-16T00:43:03.108Z,18.27
2018-01-16T00:45:30.813Z,17.83
2018-01-16T00:47:58.396Z,19.05
2018-01-16T00:50:26.145Z,17.73
2018-01-16T00:52:53.718Z,19.02
2018-01-16T00:55:21.265Z,19.15
2018-01-16T00:57:48.993Z,18.17
2018-01-16T01:00:16.657Z,18.55
2018-01-16T01:02:44.282Z,18.45
2018-01-16T01:05:12.094Z,19.35
2018-01-16T01:07:39.654Z,17.73
2018-01-16T01:10:07.431Z,18.50
2018-01-16T01:12:35.147Z,18.95
2018-01-16T01:15:02.734Z,18.90
2018-01-16T01:17:30.274Z,19.25
2018-01-16T01:19:57.904Z,19.40
2018-01-16T01:22:25.622Z,18.50
2018-01-16T01:24:53.231Z,18.77
2018-01-16T01:27:20.792Z,19.42
2018-01-16T01:29:48.331Z,19.12
2018-01-16T01:32:16.000Z,17.98
2018-01-16T01:34:43.539Z,19.10
2018-01-16T01:37:11.135Z,19.27
2018-01-16T01:39:38.679Z,18.17
2018-01-16T01:42:06.222Z,18.80
2018-01-16T01:44:33.878Z,18.48
2018-01-16T01:47:01.414Z,18.98
2018-01-16T01:49:28.982Z,18.35
2018-01-16T01:51:56.530Z,18.10
2018-01-16T01:54:24.118Z,18.30
2018-01-16T01:56:51.826Z,20.17
2018-01-16T01:59:19.386Z,20.65
2018-01-16T02:01:46.955Z,18.42
2018-01-16T02:04:14.497Z,20.50
2018-01-16T02:06:42.137Z,19.00
2018-01-16T02:09:09.682Z,19.35
2018-01-16T02:11:37.225Z,20.48
2018-01-16T02:14:04.882Z,19.33
2018-01-16T02:16:32.514Z,17.90
2018-01-16T02:19:00.327Z,19.12
2018-01-16T02:21:28.145Z,19.10
2018-01-16T02:23:55.738Z,17.98
2018-01-16T02:26:23.480Z,20.35
2018-01-16T02:28:51.024Z,20.85
2018-01-16T02:31:18.817Z,20.55
2018-01-16T02:33:46.543Z,19.55
2018-01-16T02:36:14.090Z,19.60
2018-01-16T02:38:41.640Z,18.50
2018-01-16T02:41:09.190Z,18.60
2018-01-16T02:43:36.789Z,18.52
2018-01-16T02:46:04.530Z,21.87
2018-01-16T02:48:32.067Z,18.30
2018-01-16T02:50:59.827Z,19.83
2018-01-16T02:53:27.373Z,19.20
2018-01-16T02:55:54.980Z,19.37
2018-01-16T02:58:22.715Z,18.45
2018-01-16T03:00:50.262Z,18.37
2018-01-16T03:03:17.806Z,20.75
2018-01-16T03:05:45.468Z,20.85
2018-01-16T03:08:13.058Z,18.58
2018-01-16T03:10:40.598Z,19.75
2018-01-16T03:13:08.223Z,22.33
2018-01-16T03:15:35.790Z,21.40
2018-01-16T03:18:03.557Z,20.85
2018-01-16T03:20:31.150Z,20.80
2018-01-16T03:22:58.746Z,21.15
2018-01-16T03:25:26.290Z,21.40
2018-01-16T03:27:53.866Z,22.65
2018-01-16T03:30:21.422Z,21.05
2018-01-16T03:32:49.166Z,20.23
2018-01-16T03:35:16.701Z,21.73
2018-01-16T03:37:44.498Z,22.73
2018-01-16T03:40:12.070Z,23.20
2018-01-16T03:42:39.681Z,23.73
2018-01-16T03:45:07.273Z,22.13
2018-01-16T03:47:34.821Z,22.35
2018-01-16T03:50:02.371Z,21.90
2018-01-16T03:52:29.916Z,23.10
2018-01-16T03:54:57.469Z,22.02
2018-01-16T03:57:25.121Z,22.83
2018-01-16T03:59:52.668Z,23.42
2018-01-16T04:02:20.222Z,23.73
2018-01-16T04:04:47.898Z,23.83
2018-01-16T04:07:15.518Z,28.30
2018-01-16T04:09:43.130Z,26.52
2018-01-16T04:12:10.749Z,28.42
2018-01-16T04:14:38.298Z,22.00
2018-01-16T04:17:06.082Z,23.50
2018-01-16T04:19:33.657Z,22.50
2018-01-16T04:22:01.247Z,22.83
2018-01-16T04:24:28.794Z,22.95
2018-01-16T04:26:56.415Z,20.98
2018-01-16T04:29:24.141Z,20.27
2018-01-16T04:31:51.850Z,22.90
2018-01-16T04:34:19.655Z,20.30
2018-01-16T04:36:47.194Z,23.77
2018-01-16T04:39:14.946Z,22.33
2018-01-16T04:41:42.497Z,20.55
2018-01-16T04:44:10.185Z,22.02
2018-01-16T04:46:37.797Z,22.40
2018-01-16T04:49:05.349Z,22.23
2018-01-16T04:51:32.939Z,22.58
2018-01-16T04:54:00.486Z,24.73
2018-01-16T04:56:28.061Z,23.50
2018-01-16T04:58:55.654Z,23.02
2018-01-16T05:01:23.194Z,23.65
2018-01-16T05:03:50.730Z,23.35
2018-01-16T05:06:18.302Z,22.75
2018-01-16T05:08:45.845Z,21.65
2018-01-16T05:11:13.434Z,23.77
2018-01-16T05:13:40.975Z,24.40
2018-01-16T05:16:08.522Z,24.12
2018-01-16T05:18:36.075Z,28.92
2018-01-16T05:21:03.618Z,26.25
2018-01-16T05:23:31.290Z,23.80
2018-01-16T05:25:58.825Z,26.30
2018-01-16T05:28:26.366Z,26.77
2018-01-16T05:30:54.017Z,26.25
2018-01-16T05:33:21.563Z,26.62
2018-01-16T05:35:49.186Z,25.23
2018-01-16T05:38:16.875Z,25.50
2018-01-16T05:40:44.588Z,31.20
2018-01-16T05:43:12.171Z,30.65
2018-01-16T05:45:39.774Z,30.27
2018-01-16T05:48:07.361Z,34.90
2018-01-16T05:50:34.897Z,29.50
2018-01-16T05:53:02.444Z,27.33
2018-01-16T05:55:30.009Z,29.08
2018-01-16T05:57:57.606Z,27.40
2018-01-16T06:00:25.336Z,42.22
2018-01-16T06:02:52.971Z,28.60
2018-01-16T06:05:20.514Z,29.05
2018-01-16T06:07:48.062Z,27.77
2018-01-16T06:10:15.612Z,22.65
2018-01-16T06:12:43.417Z,24.10
2018-01-16T06:15:10.957Z,25.27
2018-01-16T06:17:38.506Z,22.85
2018-01-16T06:20:06.056Z,23.45
2018-01-16T06:22:33.678Z,22.30
2018-01-16T06:25:01.411Z,22.02
2018-01-16T06:27:29.124Z,22.27
2018-01-16T06:29:56.741Z,22.87
2018-01-16T06:32:24.461Z,22.73
2018-01-16T06:34:52.010Z,24.00
2018-01-16T06:37:19.661Z,22.52
2018-01-16T06:39:47.305Z,24.42
2018-01-16T06:42:14.848Z,25.20
2018-01-16T06:44:42.411Z,23.40
2018-01-16T06:47:09.964Z,26.12
2018-01-16T06:49:37.550Z,31.92
2018-01-16T06:52:05.094Z,31.20
2018-01-16T06:54:32.705Z,26.35
2018-01-16T06:57:00.258Z,25.35
2018-01-16T06:59:27.794Z,29.17
2018-01-16T07:01:56.217Z,33.10
2018-01-16T07:04:23.895Z,34.67
2018-01-16T07:06:51.611Z,32.78
2018-01-16T07:09:19.166Z,33.17
2018-01-16T07:11:46.709Z,33.30
2018-01-16T07:14:14.472Z,27.17
2018-01-16T07:16:42.182Z,20.62
2018-01-16T07:19:09.907Z,22.15
2018-01-16T07:21:37.462Z,24.75
2018-01-16T07:24:05.046Z,21.15
2018-01-16T07:26:32.746Z,23.48
2018-01-16T07:29:00.375Z,23.25
2018-01-16T07:31:27.926Z,23.70
2018-01-16T07:33:55.523Z,23.10
2018-01-16T07:36:23.071Z,24.92
2018-01-16T07:38:50.722Z,25.85
2018-01-16T07:41:18.264Z,26.77
2018-01-16T07:43:45.834Z,36.75
2018-01-16T07:46:13.498Z,31.62
2018-01-16T07:48:41.058Z,32.05
2018-01-16T07:51:08.682Z,27.77
2018-01-16T07:53:36.349Z,24.27
2018-01-16T07:56:04.075Z,32.70
2018-01-16T07:58:31.629Z,30.48
2018-01-16T08:00:59.404Z,32.22
2018-01-16T08:03:27.000Z,29.15
2018-01-16T08:05:54.573Z,30.33
2018-01-16T08:08:22.117Z,28.08
2018-01-16T08:10:49.695Z,26.17
2018-01-16T08:13:17.282Z,26.35
2018-01-16T08:15:45.112Z,28.27
2018-01-16T08:18:12.657Z,27.30
2018-01-16T08:20:40.216Z,23.92
2018-01-16T08:23:08.089Z,25.17
2018-01-16T08:25:35.624Z,21.57
2018-01-16T08:28:03.391Z,27.00
2018-01-16T08:30:30.970Z,20.80
2018-01-16T08:32:58.509Z,18.37
2018-01-16T08:35:26.195Z,17.30
2018-01-16T08:37:53.788Z,18.97
2018-01-16T08:40:21.381Z,24.17
2018-01-16T08:42:49.147Z,19.73
2018-01-16T08:45:16.697Z,20.70
2018-01-16T08:47:44.273Z,33.10
2018-01-16T08:50:11.818Z,22.27
2018-01-16T08:52:39.521Z,22.60
2018-01-16T08:55:07.054Z,24.53
2018-01-16T08:57:34.853Z,27.57
2018-01-16T09:00:02.397Z,24.67
2018-01-16T09:02:29.938Z,23.07
2018-01-16T09:04:57.563Z,25.63
2018-01-16T09:07:25.324Z,23.87
2018-01-16T09:09:52.869Z,41.63
2018-01-16T09:12:20.421Z,22.60
2018-01-16T09:14:48.146Z,23.40
2018-01-16T09:17:15.730Z,23.30
2018-01-16T09:19:43.334Z,20.97
2018-01-16T09:22:11.132Z,23.03
2018-01-16T09:24:38.696Z,20.90
2018-01-16T09:27:06.429Z,23.00
2018-01-16T09:29:34.014Z,24.57
2018-01-16T09:32:01.894Z,23.00
2018-01-16T09:34:29.430Z,21.27
2018-01-16T09:36:56.994Z,20.80
2018-01-16T09:39:24.658Z,21.70
2018-01-16T09:41:52.301Z,20.40
2018-01-16T09:44:19.838Z,24.10
2018-01-16T09:46:47.378Z,22.13
2018-01-16T09:49:14.927Z,21.93
2018-01-16T09:51:42.469Z,23.07
2018-01-16T09:54:10.063Z,26.00
2018-01-16T09:56:37.594Z,29.33
2018-01-16T09:59:05.198Z,30.40
2018-01-16T10:01:32.916Z,31.53
2018-01-16T10:04:00.462Z,31.27
2018-01-16T10:06:28.049Z,44.30
2018-01-16T10:08:55.831Z,34.70
2018-01-16T10:11:23.386Z,29.00
2018-01-16T10:13:51.210Z,27.27
2018-01-16T10:16:18.751Z,27.20
2018-01-16T10:18:46.334Z,24.80
2018-01-16T10:21:13.950Z,24.80
2018-01-16T10:23:41.480Z,22.03
2018-01-16T10:26:09.088Z,22.57
2018-01-16T10:28:36.810Z,23.70
2018-01-16T10:31:04.535Z,19.80
2018-01-16T10:33:32.151Z,20.57
2018-01-16T10:35:59.866Z,19.77
2018-01-16T10:38:27.444Z,20.83
2018-01-16T10:40:55.163Z,22.53
2018-01-16T10:43:22.823Z,22.03
2018-01-16T10:45:50.543Z,28.60
2018-01-16T10:48:18.095Z,23.10
2018-01-16T10:50:45.876Z,24.63
2018-01-16T10:53:13.435Z,23.30
2018-01-16T10:55:41.027Z,23.80
2018-01-16T10:58:08.574Z,28.97
2018-01-16T11:00:36.114Z,24.63
2018-01-16T11:03:03.863Z,27.57
2018-01-16T11:05:31.399Z,28.37
2018-01-16T11:07:58.973Z,24.77
2018-01-16T11:10:26.617Z,22.30
2018-01-16T11:12:54.206Z,22.93
2018-01-16T11:15:21.742Z,24.83
2018-01-16T11:17:49.294Z,24.37
2018-01-16T11:20:16.874Z,26.57
2018-01-16T11:22:44.518Z,23.80
2018-01-16T11:25:12.111Z,46.47
2018-01-16T11:27:39.670Z,23.03
2018-01-16T11:30:07.256Z,25.93
2018-01-16T11:32:34.859Z,57.37
2018-01-16T11:35:02.402Z,43.47
2018-01-16T11:37:30.214Z,38.47
2018-01-16T11:39:57.930Z,38.87
2018-01-16T11:42:25.496Z,29.43
2018-01-16T11:44:53.168Z,28.67
2018-01-16T11:47:20.705Z,50.60
2018-01-16T11:49:48.422Z,28.80
2018-01-16T11:52:15.966Z,68.50
2018-01-16T11:54:43.639Z,30.83
2018-01-16T11:57:11.225Z,28.97
2018-01-16T11:59:38.887Z,32.03
2018-01-16T12:02:06.507Z,30.77
2018-01-16T12:04:34.090Z,30.03
2018-01-16T12:07:01.676Z,30.03
2018-01-16T12:09:29.289Z,34.67
2018-01-16T12:11:56.964Z,28.67
2018-01-16T12:14:24.670Z,30.13
2018-01-16T12:16:52.303Z,32.20
2018-01-16T12:19:19.858Z,34.83
2018-01-16T12:21:47.434Z,35.23
2018-01-16T12:24:14.966Z,30.27
2018-01-16T12:26:42.593Z,29.73
2018-01-16T12:29:10.138Z,30.00
2018-01-16T12:31:37.686Z,40.83
2018-01-16T12:34:05.348Z,31.27
2018-01-16T12:36:32.895Z,29.63
2018-01-16T12:39:00.563Z,31.17
2018-01-16T12:41:28.115Z,31.00
2018-01-16T12:43:55.683Z,35.20
2018-01-16T12:46:23.270Z,33.03
2018-01-16T12:48:50.932Z,36.07
2018-01-16T12:51:18.477Z,34.63
2018-01-16T12:53:46.170Z,36.13
2018-01-16T12:56:13.703Z,37.20
2018-01-16T12:58:41.399Z,37.03
2018-01-16T13:01:08.930Z,32.47
2018-01-16T13:03:36.463Z,33.83
2018-01-16T13:06:04.011Z,34.27
2018-01-16T13:08:31.602Z,49.87
2018-01-16T13:10:59.229Z,188.77
2018-01-16T13:13:26.774Z,32.37
2018-01-16T13:15:54.327Z,33.93
2018-01-16T13:18:21.882Z,45.53
2018-01-16T13:20:49.453Z,101.33
2018-01-16T13:23:17.034Z,43.50
2018-01-16T13:25:44.581Z,84.83
2018-01-16T13:28:12.126Z,115.57
2018-01-16T13:30:39.707Z,39.77
2018-01-16T13:33:07.346Z,36.57
2018-01-16T13:35:35.066Z,35.43
2018-01-16T13:38:02.696Z,42.10
2018-01-16T13:40:30.403Z,38.57
2018-01-16T13:42:58.011Z,38.77
2018-01-16T13:45:25.630Z,34.47
2018-01-16T13:47:53.212Z,32.87
2018-01-16T13:50:20.972Z,32.77
2018-01-16T13:52:48.504Z,39.37
2018-01-16T13:55:16.050Z,35.70
2018-01-16T13:57:43.603Z,33.37
2018-01-16T14:00:11.206Z,34.17
2018-01-16T14:02:38.746Z,39.03
2018-01-16T14:05:06.436Z,50.13
2018-01-16T14:07:33.986Z,41.37
2018-01-16T14:10:01.581Z,33.53
2018-01-16T14:12:29.186Z,32.23
2018-01-16T14:14:56.710Z,31.90
2018-01-16T14:17:24.307Z,30.77
2018-01-16T14:19:52.085Z,27.57
2018-01-16T14:22:19.618Z,33.20
2018-01-16T14:24:47.222Z,32.90
2018-01-16T14:27:14.795Z,37.20
2018-01-16T14:29:42.343Z,33.67
2018-01-16T14:32:09.902Z,35.33
2018-01-16T14:34:37.430Z,37.00
2018-01-16T14:37:05.213Z,39.47
2018-01-16T14:39:32.818Z,37.23
2018-01-16T14:42:00.380Z,45.53
2018-01-16T14:44:28.001Z,132.10
2018-01-16T14:46:55.538Z,69.00
2018-01-16T14:49:23.198Z,53.73
2018-01-16T14:51:50.725Z,50.13
2018-01-16T14:54:18.274Z,43.47
2018-01-16T14:56:45.841Z,39.90
2018-01-16T14:59:13.406Z,37.77
2018-01-16T15:01:40.989Z,231.90
2018-01-16T15:04:08.546Z,40.93
2018-01-16T15:06:36.162Z,62.67
2018-01-16T15:09:03.829Z,48.13
2018-01-16T15:11:31.361Z,55.77
2018-01-16T15:13:58.964Z,89.60
2018-01-16T15:16:26.600Z,60.37
2018-01-16T15:18:54.414Z,80.07
2018-01-16T15:21:22.231Z,82.13
2018-01-16T15:23:49.776Z,103.80
2018-01-16T15:26:17.317Z,77.90
2018-01-16T15:28:44.867Z,96.37
2018-01-16T15:31:12.413Z,113.83
2018-01-16T15:33:40.128Z,86.77
2018-01-16T15:36:07.732Z,77.62
2018-01-16T15:38:35.349Z,67.97
2018-01-16T15:41:02.885Z,72.83
2018-01-16T15:43:30.622Z,56.35
2018-01-16T15:45:58.161Z,62.63
2018-01-16T15:48:25.831Z,62.80
2018-01-16T15:50:53.388Z,72.97
2018-01-16T15:53:21.005Z,73.37
2018-01-16T15:55:48.574Z,64.75
2018-01-16T15:58:16.202Z,90.35
2018-01-16T16:00:43.918Z,99.95
2018-01-16T16:03:11.662Z,87.85
2018-01-16T16:05:39.341Z,96.28
2018-01-16T16:08:06.917Z,171.60
2018-01-16T16:10:34.481Z,142.32
2018-01-16T16:13:02.198Z,140.52
2018-01-16T16:15:29.762Z,147.93
2018-01-16T16:17:57.330Z,142.35
2018-01-16T16:20:24.948Z,135.80
2018-01-16T16:22:52.775Z,105.45
2018-01-16T16:25:20.323Z,101.32
2018-01-16T16:27:48.010Z,108.25
2018-01-16T16:30:15.591Z,113.37
2018-01-16T16:32:43.146Z,80.70
2018-01-16T16:35:10.736Z,79.22
2018-01-16T16:37:38.457Z,83.05
2018-01-16T16:40:06.082Z,76.93
2018-01-16T16:42:33.727Z,80.75
2018-01-16T16:45:01.282Z,82.82
2018-01-16T16:47:28.851Z,97.47
2018-01-16T16:49:56.571Z,87.57
2018-01-16T16:52:25.318Z,86.30
2018-01-16T16:54:52.910Z,71.70
2018-01-16T16:57:20.469Z,69.05
2018-01-16T16:59:48.103Z,109.53
2018-01-16T17:02:15.664Z,82.60
2018-01-16T17:04:43.261Z,66.68
2018-01-16T17:07:10.941Z,75.03
2018-01-16T17:09:38.722Z,94.57
2018-01-16T17:12:06.294Z,130.52
2018-01-16T17:14:33.846Z,76.80
2018-01-16T17:17:01.672Z,122.80
2018-01-16T17:19:29.230Z,120.22
2018-01-16T17:21:56.900Z,89.93
2018-01-16T17:24:24.628Z,72.18
2018-01-16T17:26:52.230Z,82.43
2018-01-16T17:29:19.836Z,93.10
2018-01-16T17:31:47.454Z,95.55
2018-01-16T17:34:15.010Z,89.30
2018-01-16T17:36:42.579Z,108.28
2018-01-16T17:39:10.215Z,127.03
2018-01-16T17:41:37.863Z,147.85
2018-01-16T17:44:05.438Z,172.15
2018-01-16T17:46:33.088Z,172.20
2018-01-16T17:49:00.674Z,100.40
2018-01-16T17:51:28.302Z,79.50
2018-01-16T17:53:55.942Z,68.43
2018-01-16T17:56:23.543Z,68.00
2018-01-16T17:58:51.166Z,96.78
2018-01-16T18:01:18.994Z,105.90
2018-01-16T18:03:46.604Z,101.22
2018-01-16T18:06:14.431Z,185.00
2018-01-16T18:08:42.198Z,173.00
2018-01-16T18:11:09.822Z,115.93
2018-01-16T18:13:37.642Z,104.47
2018-01-16T18:16:05.205Z,90.00
2018-01-16T18:18:32.763Z,112.60
2018-01-16T18:21:00.402Z,98.85
2018-01-16T18:23:27.947Z,89.82
2018-01-16T18:25:55.568Z,121.55
2018-01-16T18:28:23.118Z,92.55
2018-01-16T18:30:50.719Z,59.80
2018-01-16T18:33:18.627Z,124.78
2018-01-16T18:35:46.307Z,86.63
2018-01-16T18:38:13.878Z,173.10
2018-01-16T18:40:41.492Z,119.68
2018-01-16T18:43:09.054Z,89.45
2018-01-16T18:45:36.638Z,78.95
2018-01-16T18:48:04.205Z,89.32
2018-01-16T18:50:31.762Z,93.75
2018-01-16T18:52:59.432Z,91.50
2018-01-16T18:55:26.994Z,95.25
2018-01-16T18:57:54.583Z,87.78
2018-01-16T19:00:22.230Z,83.37
2018-01-16T19:02:49.812Z,103.00
2018-01-16T19:05:17.407Z,90.70
2018-01-16T19:07:44.973Z,80.97
2018-01-16T19:10:12.534Z,84.60
2018-01-16T19:12:40.161Z,83.03
2018-01-16T19:15:07.859Z,91.03
2018-01-16T19:17:35.498Z,101.97
2018-01-16T19:20:03.055Z,130.20
2018-01-16T19:22:30.605Z,104.97
2018-01-16T19:24:58.202Z,106.57
2018-01-16T19:27:25.758Z,110.47
2018-01-16T19:29:53.393Z,107.30
2018-01-16T19:32:21.019Z,123.03
2018-01-16T19:34:48.741Z,123.60
2018-01-16T19:37:16.345Z,109.28
2018-01-16T19:39:43.920Z,107.28
2018-01-16T19:42:11.661Z,114.43
2018-01-16T19:44:39.234Z,107.15
2018-01-16T19:47:06.840Z,106.78
2018-01-16T19:49:34.551Z,105.05
2018-01-16T19:52:02.234Z,97.10
2018-01-16T19:54:29.814Z,98.80
2018-01-16T19:56:57.503Z,91.93
2018-01-16T19:59:25.152Z,86.10
2018-01-16T20:01:52.702Z,84.68
2018-01-16T20:04:20.270Z,71.43
2018-01-16T20:06:47.850Z,73.80
2018-01-16T20:09:15.417Z,70.50
2018-01-16T20:11:43.873Z,73.40
2018-01-16T20:14:11.595Z,78.62
2018-01-16T20:16:39.250Z,75.45
2018-01-16T20:19:06.814Z,80.32
2018-01-16T20:21:34.371Z,85.93
2018-01-16T20:24:01.938Z,97.15
2018-01-16T20:26:29.719Z,95.95
2018-01-16T20:28:57.434Z,102.85
2018-01-16T20:31:24.998Z,113.85
2018-01-16T20:33:52.549Z,120.00
2018-01-16T20:36:20.391Z,119.43
2018-01-16T20:38:48.106Z,111.20
2018-01-16T20:41:15.824Z,110.30
2018-01-16T20:43:43.389Z,181.05
2018-01-16T20:46:11.151Z,118.53
2018-01-16T20:48:38.786Z,113.37
2018-01-16T20:51:06.358Z,89.00
2018-01-16T20:53:34.114Z,96.57
2018-01-16T20:56:01.746Z,99.70
2018-01-16T20:58:29.551Z,107.75
2018-01-16T21:00:57.102Z,113.28
2018-01-16T21:03:24.890Z,118.90
2018-01-16T21:05:52.703Z,117.70
2018-01-16T21:08:20.286Z,98.10
2018-01-16T21:10:48.040Z,98.28
2018-01-16T21:13:15.606Z,95.82
2018-01-16T21:15:43.275Z,97.65
2018-01-16T21:18:10.834Z,100.07
2018-01-16T21:20:38.509Z,54.58
2018-01-16T21:23:06.120Z,60.12
2018-01-16T21:25:33.748Z,54.67
2018-01-16T21:28:01.526Z,55.47
2018-01-16T21:30:29.080Z,76.07
2018-01-16T21:32:56.690Z,85.60
2018-01-16T21:35:24.245Z,80.50
2018-01-16T21:37:51.907Z,75.68
2018-01-16T21:40:19.510Z,73.43
2018-01-16T21:42:47.066Z,94.30
2018-01-16T21:45:14.893Z,64.65
2018-01-16T21:47:42.438Z,64.35
2018-01-16T21:50:10.226Z,62.03
2018-01-16T21:52:37.835Z,61.95
2018-01-16T21:55:05.434Z,67.90
2018-01-16T21:57:33.144Z,60.25
2018-01-16T22:00:00.806Z,62.67
2018-01-16T22:02:28.551Z,63.35
2018-01-16T22:04:56.101Z,63.75
2018-01-16T22:07:23.654Z,66.18
2018-01-16T22:09:51.279Z,76.22
2018-01-16T22:12:19.087Z,71.95
2018-01-16T22:14:46.710Z,86.00
2018-01-16T22:17:14.318Z,75.37
2018-01-16T22:19:41.886Z,75.70
2018-01-16T22:22:09.434Z,66.85
2018-01-16T22:24:37.005Z,71.18
2018-01-16T22:27:04.569Z,61.42
2018-01-16T22:29:32.311Z,46.13
2018-01-16T22:31:59.910Z,42.55
2018-01-16T22:34:27.647Z,39.97
2018-01-16T22:36:55.380Z,38.22
2018-01-16T22:39:23.215Z,39.65
2018-01-16T22:41:50.792Z,43.10
2018-01-16T22:44:18.330Z,43.00
2018-01-16T22:46:46.137Z,40.08
2018-01-16T22:49:13.856Z,39.35
2018-01-16T22:51:41.447Z,44.92
2018-01-16T22:54:09.096Z,43.08
2018-01-16T22:56:36.701Z,42.60
2018-01-16T22:59:04.431Z,43.20
2018-01-16T23:01:31.986Z,47.05
2018-01-16T23:03:59.763Z,45.03
2018-01-16T23:06:27.306Z,38.38
2018-01-16T23:08:54.846Z,39.05
2018-01-16T23:11:22.518Z,38.72
2018-01-16T23:13:50.062Z,40.00
2018-01-16T23:16:17.610Z,41.53
2018-01-16T23:18:45.149Z,39.85
2018-01-16T23:21:12.726Z,43.53
2018-01-16T23:23:40.265Z,44.40
2018-01-16T23:26:07.818Z,44.55
2018-01-16T23:28:35.541Z,44.60
2018-01-16T23:31:03.104Z,43.17
2018-01-16T23:33:30.876Z,43.20
2018-01-16T23:35:58.469Z,44.25
2018-01-16T23:38:26.102Z,43.15
2018-01-16T23:40:53.656Z,40.08
2018-01-16T23:43:21.239Z,52.70
2018-01-16T23:45:48.818Z,46.08
2018-01-16T23:48:16.374Z,42.83
2018-01-16T23:50:43.954Z,42.28
2018-01-16T23:53:11.617Z,38.45
2018-01-16T23:55:39.198Z,39.60
2018-01-16T23:58:06.743Z,40.65
